createdAt,value
2022-09-11T00:02:06.353Z,101380.63
2022-09-11T00:05:08.136Z,101387.94
2022-09-11T00:08:12.122Z,101382.66
2022-09-11T00:11:19.804Z,101387.28
2022-09-11T00:14:21.397Z,101385.59
2022-09-11T00:17:23.122Z,101384.94
2022-09-11T00:20:24.631Z,101385.06
2022-09-11T00:23:27.312Z,101387.84
2022-09-11T00:26:28.945Z,101387.97
2022-09-11T00:29:31.007Z,101379.19
2022-09-11T00:32:33.282Z,101387.22
2022-09-11T00:35:34.908Z,101387.22
2022-09-11T00:38:37.417Z,101387.31
2022-09-11T00:41:42.357Z,101391.84
2022-09-11T00:44:45.416Z,101383.03
2022-09-11T00:47:49.030Z,101386.59
2022-09-11T00:50:52.461Z,101381.44
2022-09-11T00:53:58.381Z,101381.56
2022-09-11T00:57:03.224Z,101388.00
2022-09-11T01:00:06.040Z,101385.53
2022-09-11T01:03:07.788Z,101391.88
2022-09-11T01:06:10.696Z,101391.22
2022-09-11T01:09:12.793Z,101389.50
2022-09-11T01:12:43.029Z,101389.63
2022-09-11T01:16:04.276Z,101392.59
2022-09-11T01:19:47.375Z,101389.19
2022-09-11T01:23:02.603Z,101381.50
2022-09-11T01:26:37.769Z,101391.41
2022-09-11T01:29:41.779Z,101400.75
2022-09-11T01:33:06.205Z,101398.31
2022-09-11T01:36:14.082Z,101403.00
2022-09-11T01:39:20.223Z,101404.94
2022-09-11T01:42:24.708Z,101398.09
2022-09-11T01:45:27.266Z,101407.19
2022-09-11T01:48:52.992Z,101405.47
2022-09-11T01:51:59.071Z,101411.16
2022-09-11T01:55:05.742Z,101411.34
2022-09-11T01:58:17.982Z,101416.06
2022-09-11T02:01:27.716Z,101407.28
2022-09-11T02:04:33.957Z,101409.22
2022-09-11T02:07:41.247Z,101418.41
2022-09-11T02:10:52.345Z,101416.16
2022-09-11T02:14:39.263Z,101419.47
2022-09-11T02:17:48.225Z,101411.09
2022-09-11T02:20:51.402Z,101419.44
2022-09-11T02:23:55.441Z,101426.72
2022-09-11T02:27:09.752Z,101428.63
2022-09-11T02:30:12.713Z,101421.69
2022-09-11T02:33:27.972Z,101421.97
2022-09-11T02:36:32.140Z,101422.28
2022-09-11T02:39:48.922Z,101419.72
2022-09-11T02:43:11.845Z,101431.38
2022-09-11T02:46:41.704Z,101426.19
2022-09-11T02:49:53.266Z,101424.47
2022-09-11T02:53:10.829Z,101421.81
2022-09-11T02:56:24.012Z,101437.94
2022-09-11T02:59:32.556Z,101437.09
2022-09-11T03:02:41.511Z,101436.44
2022-09-11T03:05:43.300Z,101439.31
2022-09-11T03:08:45.686Z,101442.09
2022-09-11T03:11:47.283Z,101437.69
2022-09-11T03:14:49.639Z,101442.19
2022-09-11T03:17:51.284Z,101445.72
2022-09-11T03:20:53.021Z,101449.25
2022-09-11T03:23:54.710Z,101445.81
2022-09-11T03:26:56.299Z,101452.88
2022-09-11T03:29:58.780Z,101458.22
2022-09-11T03:33:04.219Z,101459.06
2022-09-11T03:36:06.916Z,101463.56
2022-09-11T03:39:08.556Z,101449.25
2022-09-11T03:42:13.062Z,101456.31
2022-09-11T03:45:14.995Z,101458.00
2022-09-11T03:48:16.984Z,101455.34
2022-09-11T03:51:18.540Z,101455.25
2022-09-11T03:54:21.006Z,101458.88
2022-09-11T03:57:22.556Z,101463.34
2022-09-11T04:00:24.074Z,101471.38
2022-09-11T04:03:25.953Z,101473.28
2022-09-11T04:06:27.838Z,101480.44
2022-09-11T04:09:29.869Z,101480.44
2022-09-11T04:12:31.419Z,101479.59
2022-09-11T04:15:32.986Z,101471.59
2022-09-11T04:18:38.611Z,101481.59
2022-09-11T04:21:40.645Z,101481.72
2022-09-11T04:24:42.170Z,101486.19
2022-09-11T04:27:43.809Z,101487.16
2022-09-11T04:30:45.496Z,101488.75
2022-09-11T04:33:47.333Z,101493.16
2022-09-11T04:36:48.921Z,101485.16
2022-09-11T04:39:50.747Z,101497.53
2022-09-11T04:42:52.384Z,101505.47
2022-09-11T04:46:00.779Z,101508.13
2022-09-11T04:49:02.423Z,101509.94
2022-09-11T04:52:06.173Z,101512.50
2022-09-11T04:55:08.267Z,101509.00
2022-09-11T04:58:10.044Z,101511.56
2022-09-11T05:01:15.427Z,101506.09
2022-09-11T05:04:21.780Z,101506.97
2022-09-11T05:07:25.982Z,101511.25
2022-09-11T05:10:27.500Z,101514.69
2022-09-11T05:13:36.098Z,101516.41
2022-09-11T05:16:38.483Z,101509.34
2022-09-11T05:19:40.584Z,101519.94
2022-09-11T05:22:42.264Z,101521.56
2022-09-11T05:25:43.924Z,101522.38
2022-09-11T05:28:46.021Z,101525.88
2022-09-11T05:31:47.896Z,101533.78
2022-09-11T05:34:49.861Z,101539.88
2022-09-11T05:37:51.428Z,101551.31
2022-09-11T05:40:53.062Z,101550.19
2022-09-11T05:43:54.870Z,101558.09
2022-09-11T05:46:57.042Z,101557.91
2022-09-11T05:49:58.676Z,101554.16
2022-09-11T05:53:00.865Z,101562.94
2022-09-11T05:56:17.499Z,101571.72
2022-09-11T05:59:20.377Z,101572.50
2022-09-11T06:02:22.193Z,101578.09
2022-09-11T06:05:23.942Z,101576.72
2022-09-11T06:08:25.586Z,101578.88
2022-09-11T06:11:27.284Z,101579.25
2022-09-11T06:14:29.242Z,101581.50
2022-09-11T06:17:30.932Z,101587.19
2022-09-11T06:20:33.852Z,101584.94
2022-09-11T06:23:37.179Z,101590.00
2022-09-11T06:26:38.825Z,101591.50
2022-09-11T06:29:40.475Z,101596.56
2022-09-11T06:32:42.329Z,101598.03
2022-09-11T06:35:43.917Z,101601.25
2022-09-11T06:38:46.851Z,101602.72
2022-09-11T06:41:48.500Z,101602.31
2022-09-11T06:44:52.083Z,101606.34
2022-09-11T06:47:53.727Z,101601.66
2022-09-11T06:50:55.480Z,101608.28
2022-09-11T06:53:58.676Z,101597.16
2022-09-11T06:57:00.267Z,101595.03
2022-09-11T07:00:02.794Z,101608.97
2022-09-11T07:03:04.899Z,101611.19
2022-09-11T07:06:06.975Z,101609.91
2022-09-11T07:09:11.276Z,101628.13
2022-09-11T07:12:12.828Z,101624.16
2022-09-11T07:15:15.109Z,101625.31
2022-09-11T07:18:18.473Z,101624.97
2022-09-11T07:21:25.080Z,101627.44
2022-09-11T07:24:26.921Z,101631.28
2022-09-11T07:27:29.655Z,101612.06
2022-09-11T07:30:32.585Z,101616.63
2022-09-11T07:33:34.157Z,101620.13
2022-09-11T07:36:36.027Z,101612.25
2022-09-11T07:39:37.656Z,101614.22
2022-09-11T07:42:39.246Z,101621.59
2022-09-11T07:45:40.907Z,101626.50
2022-09-11T07:48:43.189Z,101633.16
2022-09-11T07:51:45.027Z,101627.31
2022-09-11T07:54:47.098Z,101632.34
2022-09-11T07:57:49.687Z,101632.94
2022-09-11T08:00:58.124Z,101638.94
2022-09-11T08:04:02.177Z,101635.19
2022-09-11T08:07:03.816Z,101640.19
2022-09-11T08:10:26.104Z,101645.19
2022-09-11T08:13:27.771Z,101644.13
2022-09-11T08:16:30.034Z,101646.69
2022-09-11T08:19:32.917Z,101640.22
2022-09-11T08:22:34.556Z,101649.03
2022-09-11T08:25:39.420Z,101653.19
2022-09-11T08:28:45.413Z,101661.88
2022-09-11T08:31:47.001Z,101657.00
2022-09-11T08:34:48.720Z,101671.03
2022-09-11T08:37:54.734Z,101667.25
2022-09-11T08:40:59.132Z,101666.16
2022-09-11T08:44:26.463Z,101662.38
2022-09-11T08:47:33.689Z,101671.94
2022-09-11T08:50:40.138Z,101673.25
2022-09-11T08:53:42.459Z,101675.84
2022-09-11T08:56:45.641Z,101672.94
2022-09-11T09:00:14.768Z,101675.34
2022-09-11T09:03:53.191Z,101676.22
2022-09-11T09:07:07.864Z,101688.78
2022-09-11T09:10:43.720Z,101679.03
2022-09-11T09:13:47.924Z,101684.50
2022-09-11T09:17:16.970Z,101679.91
2022-09-11T09:20:41.960Z,101679.03
2022-09-11T09:23:51.957Z,101689.56
2022-09-11T09:26:56.325Z,101681.22
2022-09-11T09:30:02.142Z,101684.44
2022-09-11T09:33:21.961Z,101689.22
2022-09-11T09:36:31.441Z,101685.06
2022-09-11T09:39:36.905Z,101689.72
2022-09-11T09:43:08.475Z,101691.81
2022-09-11T09:46:36.216Z,101695.34
2022-09-11T09:49:38.831Z,101701.94
2022-09-11T09:52:40.387Z,101698.25
2022-09-11T09:55:42.857Z,101696.66
2022-09-11T09:59:15.087Z,101706.06
2022-09-11T10:02:40.228Z,101703.13
2022-09-11T10:05:43.723Z,101702.78
2022-09-11T10:08:45.337Z,101703.47
2022-09-11T10:11:53.078Z,101697.19
2022-09-11T10:14:58.865Z,101694.38
2022-09-11T10:18:26.281Z,101694.88
2022-09-11T10:21:29.755Z,101691.47
2022-09-11T10:24:32.017Z,101695.13
2022-09-11T10:27:39.918Z,101699.63
2022-09-11T10:30:55.770Z,101703.28
2022-09-11T10:33:59.851Z,101701.16
2022-09-11T10:37:07.638Z,101694.09
2022-09-11T10:40:21.382Z,101695.09
2022-09-11T10:43:27.134Z,101690.06
2022-09-11T10:46:40.150Z,101684.81
2022-09-11T10:49:42.501Z,101692.25
2022-09-11T10:52:53.354Z,101689.72
2022-09-11T10:56:06.181Z,101686.16
2022-09-11T10:59:17.708Z,101696.53
2022-09-11T11:02:26.581Z,101691.53
2022-09-11T11:05:49.548Z,101691.25
2022-09-11T11:09:30.789Z,101684.69
2022-09-11T11:12:58.582Z,101681.44
2022-09-11T11:16:19.747Z,101686.78
2022-09-11T11:19:41.170Z,101697.16
2022-09-11T11:22:51.789Z,101700.81
2022-09-11T11:26:11.745Z,101696.22
2022-09-11T11:29:41.981Z,101695.31
2022-09-11T11:33:01.778Z,101699.19
2022-09-11T11:36:14.411Z,101695.19
2022-09-11T11:39:20.828Z,101700.31
2022-09-11T11:42:27.310Z,101700.16
2022-09-11T11:45:39.228Z,101699.88
2022-09-11T11:48:45.333Z,101701.53
2022-09-11T11:51:54.265Z,101700.09
2022-09-11T11:55:16.510Z,101692.94
2022-09-11T11:58:18.117Z,101694.59
2022-09-11T12:01:37.222Z,101698.19
2022-09-11T12:04:50.736Z,101694.53
2022-09-11T12:07:53.597Z,101696.34
2022-09-11T12:10:59.547Z,101694.44
2022-09-11T12:14:02.060Z,101704.19
2022-09-11T12:17:18.978Z,101713.09
2022-09-11T12:20:32.890Z,101707.53
2022-09-11T12:23:57.263Z,101704.50
2022-09-11T12:27:36.334Z,101717.91
2022-09-11T12:31:05.127Z,101722.25
2022-09-11T12:34:16.067Z,101712.47
2022-09-11T12:37:33.294Z,101711.09
2022-09-11T12:40:53.320Z,101712.69
2022-09-11T12:43:55.147Z,101712.16
2022-09-11T12:47:08.558Z,101704.72
2022-09-11T12:50:22.714Z,101695.75
2022-09-11T12:53:31.262Z,101706.06
2022-09-11T12:56:34.934Z,101699.13
2022-09-11T12:59:39.254Z,101698.38
2022-09-11T13:02:46.690Z,101706.59
2022-09-11T13:05:58.866Z,101704.44
2022-09-11T13:09:01.731Z,101692.25
2022-09-11T13:12:21.592Z,101698.59
2022-09-11T13:15:43.405Z,101704.25
2022-09-11T13:18:45.310Z,101700.19
2022-09-11T13:21:49.750Z,101701.44
2022-09-11T13:25:03.627Z,101692.13
2022-09-11T13:28:06.836Z,101696.50
2022-09-11T13:31:17.593Z,101689.03
2022-09-11T13:34:23.444Z,101684.28
2022-09-11T13:37:35.798Z,101674.84
2022-09-11T13:40:43.341Z,101688.09
2022-09-11T13:43:50.440Z,101681.81
2022-09-11T13:46:52.518Z,101681.28
2022-09-11T13:50:11.276Z,101687.72
2022-09-11T13:53:13.013Z,101693.94
2022-09-11T13:56:39.100Z,101687.97
2022-09-11T13:59:44.779Z,101689.31
2022-09-11T14:02:51.072Z,101681.31
2022-09-11T14:05:55.836Z,101681.78
2022-09-11T14:08:57.685Z,101678.38
2022-09-11T14:12:02.759Z,101676.66
2022-09-11T14:15:16.493Z,101684.13
2022-09-11T14:18:26.322Z,101685.28
2022-09-11T14:21:38.622Z,101676.28
2022-09-11T14:24:51.099Z,101671.72
2022-09-11T14:27:53.213Z,101673.56
2022-09-11T14:31:11.221Z,101671.03
2022-09-11T14:34:29.587Z,101665.78
2022-09-11T14:37:34.672Z,101659.31
2022-09-11T14:40:36.709Z,101653.53
2022-09-11T14:43:38.820Z,101660.59
2022-09-11T14:46:40.542Z,101655.16
2022-09-11T14:49:42.184Z,101646.84
2022-09-11T14:52:44.291Z,101648.56
2022-09-11T14:55:46.085Z,101649.72
2022-09-11T14:58:48.821Z,101643.75
2022-09-11T15:01:52.340Z,101636.78
2022-09-11T15:04:56.327Z,101649.81
2022-09-11T15:08:00.287Z,101645.84
2022-09-11T15:11:02.150Z,101643.28
2022-09-11T15:14:20.351Z,101642.75
2022-09-11T15:17:26.045Z,101645.75
2022-09-11T15:20:27.842Z,101640.66
2022-09-11T15:23:29.519Z,101630.13
2022-09-11T15:26:32.421Z,101626.00
2022-09-11T15:29:34.746Z,101630.72
2022-09-11T15:32:37.497Z,101630.03
2022-09-11T15:35:39.359Z,101624.09
2022-09-11T15:38:41.737Z,101633.38
2022-09-11T15:41:44.076Z,101635.38
2022-09-11T15:44:46.242Z,101640.09
2022-09-11T15:47:47.934Z,101637.69
2022-09-11T15:51:02.104Z,101637.00
2022-09-11T15:54:04.571Z,101639.47
2022-09-11T15:57:07.044Z,101638.91
2022-09-11T16:00:09.546Z,101634.53
2022-09-11T16:03:12.100Z,101639.38
2022-09-11T16:06:13.783Z,101629.69
2022-09-11T16:09:23.635Z,101642.53
2022-09-11T16:12:26.274Z,101638.59
2022-09-11T16:15:28.024Z,101640.00
2022-09-11T16:18:30.127Z,101634.19
2022-09-11T16:21:31.829Z,101627.94
2022-09-11T16:24:37.773Z,101628.06
2022-09-11T16:27:39.769Z,101626.38
2022-09-11T16:30:44.961Z,101632.09
2022-09-11T16:33:48.718Z,101622.56
2022-09-11T16:36:50.557Z,101627.28
2022-09-11T16:39:52.717Z,101618.75
2022-09-11T16:42:54.808Z,101622.75
2022-09-11T16:45:56.528Z,101625.94
2022-09-11T16:49:01.652Z,101625.34
2022-09-11T16:52:05.156Z,101628.81
2022-09-11T16:55:08.464Z,101624.84
2022-09-11T16:58:10.080Z,101617.50
2022-09-11T17:01:17.509Z,101624.34
2022-09-11T17:04:19.139Z,101619.75
2022-09-11T17:07:20.932Z,101616.09
2022-09-11T17:10:22.995Z,101609.69
2022-09-11T17:13:25.264Z,101606.16
2022-09-11T17:16:29.673Z,101612.91
2022-09-11T17:19:31.379Z,101612.06
2022-09-11T17:22:33.062Z,101614.75
2022-09-11T17:25:38.576Z,101626.38
2022-09-11T17:28:42.039Z,101616.28
2022-09-11T17:31:43.770Z,101618.00
2022-09-11T17:34:47.032Z,101613.28
2022-09-11T17:37:48.601Z,101614.00
2022-09-11T17:40:50.468Z,101611.28
2022-09-11T17:43:52.195Z,101609.44
2022-09-11T17:46:56.864Z,101612.09
2022-09-11T17:50:01.487Z,101615.91
2022-09-11T17:53:03.238Z,101607.91
2022-09-11T17:56:08.152Z,101612.53
2022-09-11T17:59:10.047Z,101614.31
2022-09-11T18:02:14.497Z,101618.97
2022-09-11T18:05:16.678Z,101625.44
2022-09-11T18:08:18.556Z,101626.16
2022-09-11T18:11:20.221Z,101633.59
2022-09-11T18:14:22.141Z,101629.16
2022-09-11T18:17:23.804Z,101626.38
2022-09-11T18:20:25.597Z,101627.13
2022-09-11T18:23:27.210Z,101623.41
2022-09-11T18:26:31.224Z,101621.34
2022-09-11T18:29:35.621Z,101616.72
2022-09-11T18:32:37.371Z,101631.69
2022-09-11T18:35:39.610Z,101628.81
2022-09-11T18:38:41.357Z,101629.31
2022-09-11T18:41:44.376Z,101630.94
2022-09-11T18:44:46.076Z,101637.69
2022-09-11T18:47:52.698Z,101635.47
2022-09-11T18:50:54.989Z,101629.84
2022-09-11T18:53:56.926Z,101643.84
2022-09-11T18:57:00.277Z,101641.78
2022-09-11T19:00:02.399Z,101645.81
2022-09-11T19:03:04.188Z,101640.91
2022-09-11T19:06:19.901Z,101637.63
2022-09-11T19:09:21.529Z,101635.31
2022-09-11T19:12:23.597Z,101640.31
2022-09-11T19:15:25.397Z,101634.59
2022-09-11T19:18:27.334Z,101641.44
2022-09-11T19:21:29.201Z,101643.63
2022-09-11T19:24:31.006Z,101647.78
2022-09-11T19:27:32.760Z,101648.22
2022-09-11T19:30:35.069Z,101655.06
2022-09-11T19:33:38.421Z,101649.19
2022-09-11T19:36:41.368Z,101640.66
2022-09-11T19:39:43.018Z,101648.44
2022-09-11T19:42:44.593Z,101654.19
2022-09-11T19:45:46.161Z,101658.09
2022-09-11T19:48:48.925Z,101653.06
2022-09-11T19:51:53.125Z,101656.00
2022-09-11T19:54:54.731Z,101651.81
2022-09-11T19:57:56.281Z,101660.13
2022-09-11T20:00:59.898Z,101654.63
2022-09-11T20:04:02.315Z,101655.19
2022-09-11T20:07:03.982Z,101658.34
2022-09-11T20:10:07.178Z,101656.72
2022-09-11T20:13:09.152Z,101657.94
2022-09-11T20:16:15.130Z,101660.19
2022-09-11T20:19:17.397Z,101657.13
2022-09-11T20:22:19.970Z,101655.81
2022-09-11T20:25:22.686Z,101646.75
2022-09-11T20:28:24.311Z,101641.75
2022-09-11T20:31:31.926Z,101637.09
2022-09-11T20:34:33.709Z,101642.50
2022-09-11T20:37:35.994Z,101641.00
2022-09-11T20:40:38.045Z,101637.72
2022-09-11T20:43:40.540Z,101632.69
2022-09-11T20:46:43.782Z,101637.31
2022-09-11T20:49:45.743Z,101640.09
2022-09-11T20:52:47.343Z,101632.38
2022-09-11T20:55:50.025Z,101630.91
2022-09-11T20:58:52.585Z,101635.63
2022-09-11T21:01:54.301Z,101628.03
2022-09-11T21:04:56.075Z,101626.66
2022-09-11T21:07:57.681Z,101629.91
2022-09-11T21:11:04.258Z,101626.69
2022-09-11T21:14:07.113Z,101637.63
2022-09-11T21:17:08.804Z,101636.03
2022-09-11T21:20:10.597Z,101625.53
2022-09-11T21:23:12.235Z,101627.66
2022-09-11T21:26:15.976Z,101627.97
2022-09-11T21:29:17.711Z,101617.81
2022-09-11T21:32:19.265Z,101628.00
2022-09-11T21:35:20.912Z,101622.03
2022-09-11T21:38:25.052Z,101625.97
2022-09-11T21:41:26.621Z,101611.72
2022-09-11T21:44:28.241Z,101621.56
2022-09-11T21:47:29.748Z,101621.50
2022-09-11T21:50:31.917Z,101624.25
2022-09-11T21:53:33.450Z,101624.16
2022-09-11T21:56:35.049Z,101626.84
2022-09-11T21:59:36.582Z,101620.75
2022-09-11T22:02:38.253Z,101616.53
2022-09-11T22:05:43.491Z,101610.56
2022-09-11T22:08:47.143Z,101612.25
2022-09-11T22:11:49.130Z,101615.22
2022-09-11T22:14:52.859Z,101616.59
2022-09-11T22:17:54.396Z,101610.97
2022-09-11T22:21:00.285Z,101616.78
2022-09-11T22:24:02.064Z,101613.75
2022-09-11T22:27:03.825Z,101617.81
2022-09-11T22:30:07.047Z,101620.13
2022-09-11T22:33:08.714Z,101622.09
2022-09-11T22:36:12.831Z,101621.44
2022-09-11T22:39:15.445Z,101608.94
2022-09-11T22:42:17.042Z,101603.91
2022-09-11T22:45:18.792Z,101603.34
2022-09-11T22:48:20.508Z,101600.88
2022-09-11T22:51:22.405Z,101598.31
2022-09-11T22:54:24.072Z,101594.97
2022-09-11T22:57:28.968Z,101592.72
2022-09-11T23:00:30.837Z,101593.88
2022-09-11T23:03:32.381Z,101598.44
2022-09-11T23:06:52.557Z,101596.00
2022-09-11T23:09:54.079Z,101599.72
2022-09-11T23:12:55.618Z,101599.94
2022-09-11T23:15:57.877Z,101601.16
2022-09-11T23:19:02.448Z,101607.56
2022-09-11T23:22:04.043Z,101604.50
2022-09-11T23:25:06.366Z,101598.00
2022-09-11T23:28:07.977Z,101596.88
2022-09-11T23:31:20.391Z,101597.47
2022-09-11T23:34:22.018Z,101597.66
2022-09-11T23:37:23.525Z,101598.63
2022-09-11T23:40:25.213Z,101605.66
2022-09-11T23:43:26.777Z,101602.13
2022-09-11T23:46:28.400Z,101601.31
2022-09-11T23:49:33.094Z,101596.13
2022-09-11T23:52:39.440Z,101590.34
2022-09-11T23:55:42.462Z,101593.38
2022-09-11T23:58:45.732Z,101597.97
